sensor_id;sensor_type;location;lat;lon;timestamp;temperature;humidity
27823;DHT22;29019;47.630;8.262;2022-11-15T00:03:14;21.10;45.60
27823;DHT22;29019;47.630;8.262;2022-11-15T00:07:15;21.10;45.60
27823;DHT22;29019;47.630;8.262;2022-11-15T00:11:15;21.00;45.60
27823;DHT22;29019;47.630;8.262;2022-11-15T00:15:16;21.00;45.60
27823;DHT22;29019;47.630;8.262;2022-11-15T00:19:16;21.00;45.60
27823;DHT22;29019;47.630;8.262;2022-11-15T00:23:16;21.00;45.60
27823;DHT22;29019;47.630;8.262;2022-11-15T00:27:17;21.00;45.60
27823;DHT22;29019;47.630;8.262;2022-11-15T00:31:17;20.90;45.60
27823;DHT22;29019;47.630;8.262;2022-11-15T00:35:18;20.90;45.60
27823;DHT22;29019;47.630;8.262;2022-11-15T00:39:19;20.90;45.60
27823;DHT22;29019;47.630;8.262;2022-11-15T00:43:19;20.90;45.60
27823;DHT22;29019;47.630;8.262;2022-11-15T00:47:20;20.90;45.60
27823;DHT22;29019;47.630;8.262;2022-11-15T00:51:20;20.90;45.70
27823;DHT22;29019;47.630;8.262;2022-11-15T00:55:21;20.80;45.60
27823;DHT22;29019;47.630;8.262;2022-11-15T00:59:21;20.90;45.60
27823;DHT22;29019;47.630;8.262;2022-11-15T01:03:21;20.80;45.60
27823;DHT22;29019;47.630;8.262;2022-11-15T01:07:22;20.80;45.70
27823;DHT22;29019;47.630;8.262;2022-11-15T01:11:22;20.80;45.70
27823;DHT22;29019;47.630;8.262;2022-11-15T01:15:23;20.70;45.70
27823;DHT22;29019;47.630;8.262;2022-11-15T01:19:23;20.80;45.70
27823;DHT22;29019;47.630;8.262;2022-11-15T01:23:24;20.70;45.60
27823;DHT22;29019;47.630;8.262;2022-11-15T01:27:24;20.70;45.70
27823;DHT22;29019;47.630;8.262;2022-11-15T01:31:25;20.70;45.70
27823;DHT22;29019;47.630;8.262;2022-11-15T01:35:25;20.70;45.70
27823;DHT22;29019;47.630;8.262;2022-11-15T01:39:25;20.60;45.60
27823;DHT22;29019;47.630;8.262;2022-11-15T01:43:27;20.70;45.70
27823;DHT22;29019;47.630;8.262;2022-11-15T01:47:29;20.60;45.70
27823;DHT22;29019;47.630;8.262;2022-11-15T01:51:31;20.60;45.60
27823;DHT22;29019;47.630;8.262;2022-11-15T01:55:33;20.60;45.60
27823;DHT22;29019;47.630;8.262;2022-11-15T01:59:33;20.60;45.70
27823;DHT22;29019;47.630;8.262;2022-11-15T02:03:37;20.60;45.70
27823;DHT22;29019;47.630;8.262;2022-11-15T02:07:40;20.60;45.70
27823;DHT22;29019;47.630;8.262;2022-11-15T02:11:41;20.50;45.70
27823;DHT22;29019;47.630;8.262;2022-11-15T02:15:48;20.50;45.70
27823;DHT22;29019;47.630;8.262;2022-11-15T02:32:34;20.50;45.80
27823;DHT22;29019;47.630;8.262;2022-11-15T02:36:41;20.40;45.70
27823;DHT22;29019;47.630;8.262;2022-11-15T02:41:00;20.40;45.70
27823;DHT22;29019;47.630;8.262;2022-11-15T02:45:03;20.40;45.70
27823;DHT22;29019;47.630;8.262;2022-11-15T02:49:04;20.40;45.70
27823;DHT22;29019;47.630;8.262;2022-11-15T02:53:05;20.40;45.70
27823;DHT22;29019;47.630;8.262;2022-11-15T02:57:10;20.30;45.70
27823;DHT22;29019;47.630;8.262;2022-11-15T03:09:34;20.30;45.70
27823;DHT22;29019;47.630;8.262;2022-11-15T03:13:37;20.30;45.80
27823;DHT22;29019;47.630;8.262;2022-11-15T03:17:41;20.30;45.70
27823;DHT22;29019;47.630;8.262;2022-11-15T03:21:43;20.20;45.70
27823;DHT22;29019;47.630;8.262;2022-11-15T03:25:45;20.20;45.70
27823;DHT22;29019;47.630;8.262;2022-11-15T03:29:48;20.20;45.70
27823;DHT22;29019;47.630;8.262;2022-11-15T03:33:50;20.20;45.70
27823;DHT22;29019;47.630;8.262;2022-11-15T03:46:06;20.20;45.70
27823;DHT22;29019;47.630;8.262;2022-11-15T03:50:12;20.20;45.70
27823;DHT22;29019;47.630;8.262;2022-11-15T03:54:13;20.20;45.70
27823;DHT22;29019;47.630;8.262;2022-11-15T03:58:14;20.20;45.70
27823;DHT22;29019;47.630;8.262;2022-11-15T04:02:14;20.20;45.70
27823;DHT22;29019;47.630;8.262;2022-11-15T04:06:15;20.10;45.70
27823;DHT22;29019;47.630;8.262;2022-11-15T04:10:16;20.10;45.70
27823;DHT22;29019;47.630;8.262;2022-11-15T04:14:16;20.10;45.70
27823;DHT22;29019;47.630;8.262;2022-11-15T04:18:17;20.10;45.80
27823;DHT22;29019;47.630;8.262;2022-11-15T04:22:17;20.20;45.80
27823;DHT22;29019;47.630;8.262;2022-11-15T04:26:56;20.20;45.80
27823;DHT22;29019;47.630;8.262;2022-11-15T04:30:57;20.20;45.70
27823;DHT22;29019;47.630;8.262;2022-11-15T04:34:57;20.20;45.60
27823;DHT22;29019;47.630;8.262;2022-11-15T04:38:57;20.20;45.60
27823;DHT22;29019;47.630;8.262;2022-11-15T04:42:58;20.30;45.60
27823;DHT22;29019;47.630;8.262;2022-11-15T04:46:58;20.30;45.60
27823;DHT22;29019;47.630;8.262;2022-11-15T04:50:59;20.30;45.60
27823;DHT22;29019;47.630;8.262;2022-11-15T04:54:59;20.30;45.50
27823;DHT22;29019;47.630;8.262;2022-11-15T04:59:00;20.40;45.60
27823;DHT22;29019;47.630;8.262;2022-11-15T05:03:00;20.40;45.60
27823;DHT22;29019;47.630;8.262;2022-11-15T05:07:19;20.40;45.50
27823;DHT22;29019;47.630;8.262;2022-11-15T05:11:20;20.40;45.50
27823;DHT22;29019;47.630;8.262;2022-11-15T05:15:20;20.50;45.50
27823;DHT22;29019;47.630;8.262;2022-11-15T05:19:21;20.50;45.50
27823;DHT22;29019;47.630;8.262;2022-11-15T05:23:21;20.50;45.50
27823;DHT22;29019;47.630;8.262;2022-11-15T05:27:22;20.50;45.40
27823;DHT22;29019;47.630;8.262;2022-11-15T05:31:23;20.50;45.40
27823;DHT22;29019;47.630;8.262;2022-11-15T05:35:33;20.60;45.40
27823;DHT22;29019;47.630;8.262;2022-11-15T05:39:35;20.60;45.40
27823;DHT22;29019;47.630;8.262;2022-11-15T05:43:36;20.60;45.30
27823;DHT22;29019;47.630;8.262;2022-11-15T05:47:37;20.70;45.40
27823;DHT22;29019;47.630;8.262;2022-11-15T05:51:39;20.70;45.30
27823;DHT22;29019;47.630;8.262;2022-11-15T05:55:41;20.70;45.30
27823;DHT22;29019;47.630;8.262;2022-11-15T05:59:42;20.70;45.30
27823;DHT22;29019;47.630;8.262;2022-11-15T06:03:43;20.80;45.30
27823;DHT22;29019;47.630;8.262;2022-11-15T06:07:44;20.80;45.30
27823;DHT22;29019;47.630;8.262;2022-11-15T06:11:44;20.80;45.30
27823;DHT22;29019;47.630;8.262;2022-11-15T06:15:44;20.80;45.20
27823;DHT22;29019;47.630;8.262;2022-11-15T06:19:45;20.90;45.20
27823;DHT22;29019;47.630;8.262;2022-11-15T06:23:45;20.90;45.20
27823;DHT22;29019;47.630;8.262;2022-11-15T06:27:50;20.90;45.20
27823;DHT22;29019;47.630;8.262;2022-11-15T06:31:51;20.90;45.10
27823;DHT22;29019;47.630;8.262;2022-11-15T06:35:51;20.90;45.10
27823;DHT22;29019;47.630;8.262;2022-11-15T06:39:52;21.00;45.10
27823;DHT22;29019;47.630;8.262;2022-11-15T06:43:52;21.00;45.10
27823;DHT22;29019;47.630;8.262;2022-11-15T06:47:52;21.00;45.10
27823;DHT22;29019;47.630;8.262;2022-11-15T06:51:53;21.00;45.00
27823;DHT22;29019;47.630;8.262;2022-11-15T06:55:56;21.00;45.00
27823;DHT22;29019;47.630;8.262;2022-11-15T06:59:58;21.00;45.00
27823;DHT22;29019;47.630;8.262;2022-11-15T07:03:58;21.10;45.00
27823;DHT22;29019;47.630;8.262;2022-11-15T07:07:59;21.10;45.00
27823;DHT22;29019;47.630;8.262;2022-11-15T07:11:59;21.10;45.00
27823;DHT22;29019;47.630;8.262;2022-11-15T07:16:03;21.10;45.00
27823;DHT22;29019;47.630;8.262;2022-11-15T07:20:04;21.10;45.00
27823;DHT22;29019;47.630;8.262;2022-11-15T07:24:05;21.10;45.00
27823;DHT22;29019;47.630;8.262;2022-11-15T07:28:05;21.20;45.00
27823;DHT22;29019;47.630;8.262;2022-11-15T07:32:06;21.20;45.00
27823;DHT22;29019;47.630;8.262;2022-11-15T07:36:06;21.20;44.90
27823;DHT22;29019;47.630;8.262;2022-11-15T07:40:07;21.20;44.90
27823;DHT22;29019;47.630;8.262;2022-11-15T07:44:08;21.20;44.90
27823;DHT22;29019;47.630;8.262;2022-11-15T07:48:09;21.20;44.90
27823;DHT22;29019;47.630;8.262;2022-11-15T07:52:09;21.20;44.90
27823;DHT22;29019;47.630;8.262;2022-11-15T07:56:10;21.30;44.80
27823;DHT22;29019;47.630;8.262;2022-11-15T08:00:11;21.30;44.80
27823;DHT22;29019;47.630;8.262;2022-11-15T08:04:11;21.30;44.80
27823;DHT22;29019;47.630;8.262;2022-11-15T08:08:12;21.30;44.80
27823;DHT22;29019;47.630;8.262;2022-11-15T08:12:13;21.30;44.70
27823;DHT22;29019;47.630;8.262;2022-11-15T08:16:14;21.40;44.80
27823;DHT22;29019;47.630;8.262;2022-11-15T08:20:14;21.40;44.70
27823;DHT22;29019;47.630;8.262;2022-11-15T08:24:15;21.40;44.70
27823;DHT22;29019;47.630;8.262;2022-11-15T08:28:16;21.40;44.60
27823;DHT22;29019;47.630;8.262;2022-11-15T08:32:16;21.40;44.60
27823;DHT22;29019;47.630;8.262;2022-11-15T08:36:18;21.40;44.60
27823;DHT22;29019;47.630;8.262;2022-11-15T08:40:18;21.40;44.60
27823;DHT22;29019;47.630;8.262;2022-11-15T08:44:20;21.50;44.60
27823;DHT22;29019;47.630;8.262;2022-11-15T08:48:20;21.50;44.60
27823;DHT22;29019;47.630;8.262;2022-11-15T08:52:21;21.50;44.60
27823;DHT22;29019;47.630;8.262;2022-11-15T08:56:21;21.50;44.60
27823;DHT22;29019;47.630;8.262;2022-11-15T09:00:21;21.50;44.60
27823;DHT22;29019;47.630;8.262;2022-11-15T09:04:22;21.50;44.60
27823;DHT22;29019;47.630;8.262;2022-11-15T09:08:23;21.50;44.60
27823;DHT22;29019;47.630;8.262;2022-11-15T09:12:23;21.50;44.50
27823;DHT22;29019;47.630;8.262;2022-11-15T09:16:24;21.60;44.60
27823;DHT22;29019;47.630;8.262;2022-11-15T09:20:24;21.50;44.60
27823;DHT22;29019;47.630;8.262;2022-11-15T09:24:25;21.50;44.50
27823;DHT22;29019;47.630;8.262;2022-11-15T09:28:25;21.50;44.50
27823;DHT22;29019;47.630;8.262;2022-11-15T09:32:27;21.50;44.60
27823;DHT22;29019;47.630;8.262;2022-11-15T09:36:28;21.50;44.60
27823;DHT22;29019;47.630;8.262;2022-11-15T09:40:30;21.50;44.50
27823;DHT22;29019;47.630;8.262;2022-11-15T09:48:50;21.50;45.00
27823;DHT22;29019;47.630;8.262;2022-11-15T09:52:53;21.60;44.50
27823;DHT22;29019;47.630;8.262;2022-11-15T09:57:03;21.60;44.50
27823;DHT22;29019;47.630;8.262;2022-11-15T10:01:08;21.60;44.50
27823;DHT22;29019;47.630;8.262;2022-11-15T10:05:12;21.60;44.50
27823;DHT22;29019;47.630;8.262;2022-11-15T10:09:18;21.60;44.50
27823;DHT22;29019;47.630;8.262;2022-11-15T10:13:22;21.60;44.50
27823;DHT22;29019;47.630;8.262;2022-11-15T10:17:27;21.60;44.50
27823;DHT22;29019;47.630;8.262;2022-11-15T10:25:58;21.60;44.50
27823;DHT22;29019;47.630;8.262;2022-11-15T10:29:59;21.60;44.40
27823;DHT22;29019;47.630;8.262;2022-11-15T10:34:11;21.70;44.50
27823;DHT22;29019;47.630;8.262;2022-11-15T10:38:12;21.70;44.50
27823;DHT22;29019;47.630;8.262;2022-11-15T10:42:26;21.70;44.50
27823;DHT22;29019;47.630;8.262;2022-11-15T10:46:26;21.70;44.50
27823;DHT22;29019;47.630;8.262;2022-11-15T10:50:28;21.70;44.50
27823;DHT22;29019;47.630;8.262;2022-11-15T10:54:36;21.70;44.50
27823;DHT22;29019;47.630;8.262;2022-11-15T11:02:39;21.80;44.50
27823;DHT22;29019;47.630;8.262;2022-11-15T11:06:49;21.80;44.50
27823;DHT22;29019;47.630;8.262;2022-11-15T11:10:54;21.80;44.40
27823;DHT22;29019;47.630;8.262;2022-11-15T11:14:55;21.80;44.40
27823;DHT22;29019;47.630;8.262;2022-11-15T11:27:30;21.80;44.50
27823;DHT22;29019;47.630;8.262;2022-11-15T11:31:42;21.80;44.50
27823;DHT22;29019;47.630;8.262;2022-11-15T11:39:59;21.80;44.50
27823;DHT22;29019;47.630;8.262;2022-11-15T11:48:12;21.80;44.50
27823;DHT22;29019;47.630;8.262;2022-11-15T11:52:24;21.90;44.60
27823;DHT22;29019;47.630;8.262;2022-11-15T11:56:28;21.90;44.60
27823;DHT22;29019;47.630;8.262;2022-11-15T12:00:29;21.90;44.60
27823;DHT22;29019;47.630;8.262;2022-11-15T12:04:37;22.00;44.60
27823;DHT22;29019;47.630;8.262;2022-11-15T12:08:57;21.90;44.60
27823;DHT22;29019;47.630;8.262;2022-11-15T12:13:00;22.00;44.60
27823;DHT22;29019;47.630;8.262;2022-11-15T12:17:03;22.00;44.60
27823;DHT22;29019;47.630;8.262;2022-11-15T12:21:13;22.00;44.60
27823;DHT22;29019;47.630;8.262;2022-11-15T12:25:19;22.00;44.60
27823;DHT22;29019;47.630;8.262;2022-11-15T12:29:25;22.00;44.50
27823;DHT22;29019;47.630;8.262;2022-11-15T12:33:38;22.00;44.60
27823;DHT22;29019;47.630;8.262;2022-11-15T12:41:44;22.10;44.60
27823;DHT22;29019;47.630;8.262;2022-11-15T12:45:45;22.10;44.60
27823;DHT22;29019;47.630;8.262;2022-11-15T12:49:46;22.10;44.60
27823;DHT22;29019;47.630;8.262;2022-11-15T12:53:47;22.10;44.60
27823;DHT22;29019;47.630;8.262;2022-11-15T12:57:47;22.10;44.60
27823;DHT22;29019;47.630;8.262;2022-11-15T13:05:53;22.20;44.60
27823;DHT22;29019;47.630;8.262;2022-11-15T13:09:55;22.10;44.60
27823;DHT22;29019;47.630;8.262;2022-11-15T13:13:56;22.20;44.60
27823;DHT22;29019;47.630;8.262;2022-11-15T13:17:56;22.20;44.60
27823;DHT22;29019;47.630;8.262;2022-11-15T13:21:57;22.20;44.50
27823;DHT22;29019;47.630;8.262;2022-11-15T13:26:15;22.20;44.50
27823;DHT22;29019;47.630;8.262;2022-11-15T13:30:21;22.20;44.50
27823;DHT22;29019;47.630;8.262;2022-11-15T13:42:29;22.30;44.50
27823;DHT22;29019;47.630;8.262;2022-11-15T13:46:31;22.30;45.10
27823;DHT22;29019;47.630;8.262;2022-11-15T13:50:33;22.30;44.60
27823;DHT22;29019;47.630;8.262;2022-11-15T13:54:39;22.30;44.60
27823;DHT22;29019;47.630;8.262;2022-11-15T13:58:43;22.30;44.60
27823;DHT22;29019;47.630;8.262;2022-11-15T14:02:43;22.30;44.50
27823;DHT22;29019;47.630;8.262;2022-11-15T14:06:44;22.30;44.60
27823;DHT22;29019;47.630;8.262;2022-11-15T14:10:46;22.30;44.60
27823;DHT22;29019;47.630;8.262;2022-11-15T14:14:46;22.30;44.60
27823;DHT22;29019;47.630;8.262;2022-11-15T14:18:48;22.30;45.20
27823;DHT22;29019;47.630;8.262;2022-11-15T14:22:53;22.20;44.70
27823;DHT22;29019;47.630;8.262;2022-11-15T14:26:53;22.20;44.70
27823;DHT22;29019;47.630;8.262;2022-11-15T14:30:55;22.20;44.70
27823;DHT22;29019;47.630;8.262;2022-11-15T14:34:56;22.20;44.70
27823;DHT22;29019;47.630;8.262;2022-11-15T14:38:57;22.20;44.70
27823;DHT22;29019;47.630;8.262;2022-11-15T14:42:58;22.20;44.70
27823;DHT22;29019;47.630;8.262;2022-11-15T14:46:58;22.20;44.70
27823;DHT22;29019;47.630;8.262;2022-11-15T14:50:59;22.20;44.70
27823;DHT22;29019;47.630;8.262;2022-11-15T14:55:00;22.20;44.70
27823;DHT22;29019;47.630;8.262;2022-11-15T14:59:02;22.20;44.70
27823;DHT22;29019;47.630;8.262;2022-11-15T15:03:03;22.20;44.70
27823;DHT22;29019;47.630;8.262;2022-11-15T15:07:03;22.20;44.70
27823;DHT22;29019;47.630;8.262;2022-11-15T15:11:13;22.20;44.80
27823;DHT22;29019;47.630;8.262;2022-11-15T15:15:16;22.20;44.80
27823;DHT22;29019;47.630;8.262;2022-11-15T15:19:16;22.20;44.80
27823;DHT22;29019;47.630;8.262;2022-11-15T15:23:18;22.20;44.80
27823;DHT22;29019;47.630;8.262;2022-11-15T15:27:18;22.20;44.80
27823;DHT22;29019;47.630;8.262;2022-11-15T15:31:19;22.10;44.70
27823;DHT22;29019;47.630;8.262;2022-11-15T15:35:20;22.20;44.80
27823;DHT22;29019;47.630;8.262;2022-11-15T15:39:20;22.10;45.30
27823;DHT22;29019;47.630;8.262;2022-11-15T15:43:21;22.10;44.80
27823;DHT22;29019;47.630;8.262;2022-11-15T15:47:22;22.10;44.80
27823;DHT22;29019;47.630;8.262;2022-11-15T15:51:22;22.10;44.90
27823;DHT22;29019;47.630;8.262;2022-11-15T15:55:23;22.10;44.90
27823;DHT22;29019;47.630;8.262;2022-11-15T15:59:24;22.10;44.90
27823;DHT22;29019;47.630;8.262;2022-11-15T16:03:24;22.10;44.90
27823;DHT22;29019;47.630;8.262;2022-11-15T16:07:25;22.10;44.90
27823;DHT22;29019;47.630;8.262;2022-11-15T16:11:25;22.10;44.90
27823;DHT22;29019;47.630;8.262;2022-11-15T16:15:26;22.10;44.90
27823;DHT22;29019;47.630;8.262;2022-11-15T16:19:27;22.10;44.90
27823;DHT22;29019;47.630;8.262;2022-11-15T16:23:27;22.10;44.90
27823;DHT22;29019;47.630;8.262;2022-11-15T16:27:28;22.10;44.90
27823;DHT22;29019;47.630;8.262;2022-11-15T16:31:28;22.10;44.90
27823;DHT22;29019;47.630;8.262;2022-11-15T16:35:29;22.10;44.90
27823;DHT22;29019;47.630;8.262;2022-11-15T16:39:29;22.10;44.90
27823;DHT22;29019;47.630;8.262;2022-11-15T16:43:30;22.10;44.90
27823;DHT22;29019;47.630;8.262;2022-11-15T16:47:30;22.10;44.90
27823;DHT22;29019;47.630;8.262;2022-11-15T16:51:31;22.10;44.90
27823;DHT22;29019;47.630;8.262;2022-11-15T16:55:31;22.10;44.70
27823;DHT22;29019;47.630;8.262;2022-11-15T16:59:31;22.10;45.00
27823;DHT22;29019;47.630;8.262;2022-11-15T17:03:32;22.10;45.30
27823;DHT22;29019;47.630;8.262;2022-11-15T17:07:33;21.90;45.70
27823;DHT22;29019;47.630;8.262;2022-11-15T17:11:33;21.80;46.60
27823;DHT22;29019;47.630;8.262;2022-11-15T17:15:34;21.50;43.70
27823;DHT22;29019;47.630;8.262;2022-11-15T17:19:34;21.10;45.30
27823;DHT22;29019;47.630;8.262;2022-11-15T17:23:35;21.10;45.90
27823;DHT22;29019;47.630;8.262;2022-11-15T17:27:35;21.20;45.70
27823;DHT22;29019;47.630;8.262;2022-11-15T17:31:36;21.30;45.40
27823;DHT22;29019;47.630;8.262;2022-11-15T17:35:37;21.40;45.20
27823;DHT22;29019;47.630;8.262;2022-11-15T17:39:37;21.50;45.10
27823;DHT22;29019;47.630;8.262;2022-11-15T17:43:37;21.50;45.00
27823;DHT22;29019;47.630;8.262;2022-11-15T17:47:38;21.50;45.00
27823;DHT22;29019;47.630;8.262;2022-11-15T17:51:38;21.50;44.90
27823;DHT22;29019;47.630;8.262;2022-11-15T17:55:39;21.50;44.90
27823;DHT22;29019;47.630;8.262;2022-11-15T17:59:39;21.50;44.90
27823;DHT22;29019;47.630;8.262;2022-11-15T18:03:40;21.50;45.00
27823;DHT22;29019;47.630;8.262;2022-11-15T18:07:40;21.40;45.00
27823;DHT22;29019;47.630;8.262;2022-11-15T18:11:41;21.40;45.00
27823;DHT22;29019;47.630;8.262;2022-11-15T18:15:46;21.40;45.10
27823;DHT22;29019;47.630;8.262;2022-11-15T18:19:48;21.30;45.00
27823;DHT22;29019;47.630;8.262;2022-11-15T18:23:51;21.30;45.10
27823;DHT22;29019;47.630;8.262;2022-11-15T18:27:52;21.30;45.10
27823;DHT22;29019;47.630;8.262;2022-11-15T18:31:54;21.20;45.10
27823;DHT22;29019;47.630;8.262;2022-11-15T18:35:59;21.20;45.20
27823;DHT22;29019;47.630;8.262;2022-11-15T18:39:59;21.20;45.20
27823;DHT22;29019;47.630;8.262;2022-11-15T18:44:00;21.20;45.20
27823;DHT22;29019;47.630;8.262;2022-11-15T18:48:01;21.20;45.20
27823;DHT22;29019;47.630;8.262;2022-11-15T18:52:02;21.10;45.20
27823;DHT22;29019;47.630;8.262;2022-11-15T18:56:06;21.10;45.20
27823;DHT22;29019;47.630;8.262;2022-11-15T19:00:07;21.10;45.30
27823;DHT22;29019;47.630;8.262;2022-11-15T19:04:09;21.00;45.20
27823;DHT22;29019;47.630;8.262;2022-11-15T19:08:10;21.00;45.30
27823;DHT22;29019;47.630;8.262;2022-11-15T19:12:10;21.00;45.30
27823;DHT22;29019;47.630;8.262;2022-11-15T19:16:13;20.90;45.30
27823;DHT22;29019;47.630;8.262;2022-11-15T19:20:14;21.00;45.30
27823;DHT22;29019;47.630;8.262;2022-11-15T19:24:14;20.90;45.30
27823;DHT22;29019;47.630;8.262;2022-11-15T19:28:15;20.90;45.60
27823;DHT22;29019;47.630;8.262;2022-11-15T19:32:15;20.50;44.50
27823;DHT22;29019;47.630;8.262;2022-11-15T19:36:17;20.40;45.80
27823;DHT22;29019;47.630;8.262;2022-11-15T19:40:18;20.50;45.70
27823;DHT22;29019;47.630;8.262;2022-11-15T19:44:19;20.60;45.80
27823;DHT22;29019;47.630;8.262;2022-11-15T19:48:20;20.80;46.00
27823;DHT22;29019;47.630;8.262;2022-11-15T19:52:20;21.10;45.70
27823;DHT22;29019;47.630;8.262;2022-11-15T19:56:23;21.10;45.90
27823;DHT22;29019;47.630;8.262;2022-11-15T20:00:24;21.10;47.00
27823;DHT22;29019;47.630;8.262;2022-11-15T20:04:24;21.10;47.60
27823;DHT22;29019;47.630;8.262;2022-11-15T20:08:25;21.10;48.50
27823;DHT22;29019;47.630;8.262;2022-11-15T20:12:25;21.10;49.40
27823;DHT22;29019;47.630;8.262;2022-11-15T20:16:25;20.90;47.80
27823;DHT22;29019;47.630;8.262;2022-11-15T20:20:26;20.60;46.50
27823;DHT22;29019;47.630;8.262;2022-11-15T20:24:26;20.40;47.40
27823;DHT22;29019;47.630;8.262;2022-11-15T20:28:27;20.50;47.90
27823;DHT22;29019;47.630;8.262;2022-11-15T20:32:29;20.70;48.90
27823;DHT22;29019;47.630;8.262;2022-11-15T20:36:29;20.80;48.00
27823;DHT22;29019;47.630;8.262;2022-11-15T20:40:30;20.90;48.70
27823;DHT22;29019;47.630;8.262;2022-11-15T20:44:30;21.00;48.80
27823;DHT22;29019;47.630;8.262;2022-11-15T20:48:31;21.10;48.80
27823;DHT22;29019;47.630;8.262;2022-11-15T20:52:31;21.20;48.80
27823;DHT22;29019;47.630;8.262;2022-11-15T20:56:32;21.20;48.40
27823;DHT22;29019;47.630;8.262;2022-11-15T21:00:32;21.20;48.60
27823;DHT22;29019;47.630;8.262;2022-11-15T21:04:33;21.30;48.00
27823;DHT22;29019;47.630;8.262;2022-11-15T21:08:33;21.30;48.10
27823;DHT22;29019;47.630;8.262;2022-11-15T21:12:52;21.30;47.90
27823;DHT22;29019;47.630;8.262;2022-11-15T21:16:53;21.30;47.60
27823;DHT22;29019;47.630;8.262;2022-11-15T21:20:53;21.20;47.50
27823;DHT22;29019;47.630;8.262;2022-11-15T21:24:54;21.10;47.40
27823;DHT22;29019;47.630;8.262;2022-11-15T21:28:58;21.10;47.30
27823;DHT22;29019;47.630;8.262;2022-11-15T21:32:58;21.10;47.20
27823;DHT22;29019;47.630;8.262;2022-11-15T21:36:59;21.10;47.10
27823;DHT22;29019;47.630;8.262;2022-11-15T21:41:01;21.00;46.90
27823;DHT22;29019;47.630;8.262;2022-11-15T21:45:02;21.00;46.70
27823;DHT22;29019;47.630;8.262;2022-11-15T21:49:03;21.00;46.70
27823;DHT22;29019;47.630;8.262;2022-11-15T21:53:04;20.90;46.70
27823;DHT22;29019;47.630;8.262;2022-11-15T21:57:05;20.90;46.90
27823;DHT22;29019;47.630;8.262;2022-11-15T22:01:05;20.90;46.80
27823;DHT22;29019;47.630;8.262;2022-11-15T22:05:25;20.90;46.80
27823;DHT22;29019;47.630;8.262;2022-11-15T22:09:25;20.90;46.80
27823;DHT22;29019;47.630;8.262;2022-11-15T22:13:26;20.90;46.80
27823;DHT22;29019;47.630;8.262;2022-11-15T22:17:26;20.80;46.70
27823;DHT22;29019;47.630;8.262;2022-11-15T22:21:47;20.80;46.50
27823;DHT22;29019;47.630;8.262;2022-11-15T22:25:47;20.80;46.50
27823;DHT22;29019;47.630;8.262;2022-11-15T22:29:48;20.80;46.40
27823;DHT22;29019;47.630;8.262;2022-11-15T22:33:48;20.70;46.60
27823;DHT22;29019;47.630;8.262;2022-11-15T22:37:49;20.70;46.70
27823;DHT22;29019;47.630;8.262;2022-11-15T22:41:49;20.70;46.80
27823;DHT22;29019;47.630;8.262;2022-11-15T22:49:50;20.70;46.80
27823;DHT22;29019;47.630;8.262;2022-11-15T22:53:51;20.60;46.50
27823;DHT22;29019;47.630;8.262;2022-11-15T22:57:51;20.60;46.50
27823;DHT22;29019;47.630;8.262;2022-11-15T23:01:51;20.60;46.40
27823;DHT22;29019;47.630;8.262;2022-11-15T23:05:53;20.60;46.70
27823;DHT22;29019;47.630;8.262;2022-11-15T23:09:53;20.50;47.10
27823;DHT22;29019;47.630;8.262;2022-11-15T23:14:14;20.60;47.10
27823;DHT22;29019;47.630;8.262;2022-11-15T23:18:14;20.50;47.20
27823;DHT22;29019;47.630;8.262;2022-11-15T23:22:15;20.50;47.30
27823;DHT22;29019;47.630;8.262;2022-11-15T23:26:34;20.50;46.90
27823;DHT22;29019;47.630;8.262;2022-11-15T23:30:35;20.50;46.70
27823;DHT22;29019;47.630;8.262;2022-11-15T23:34:54;20.40;46.60
27823;DHT22;29019;47.630;8.262;2022-11-15T23:38:55;20.50;47.30
27823;DHT22;29019;47.630;8.262;2022-11-15T23:42:56;20.40;47.20
27823;DHT22;29019;47.630;8.262;2022-11-15T23:46:56;20.40;47.40
27823;DHT22;29019;47.630;8.262;2022-11-15T23:50:57;20.40;47.40
27823;DHT22;29019;47.630;8.262;2022-11-15T23:54:57;20.40;47.40
27823;DHT22;29019;47.630;8.262;2022-11-15T23:58:58;20.40;47.10
